createdAt,value
2018-12-09T00:00:36.059Z,-964.89
2018-12-09T00:01:36.134Z,-958.79
2018-12-09T00:02:36.164Z,-958.68
2018-12-09T00:03:36.225Z,-962.04
2018-12-09T00:04:36.321Z,-960.26
2018-12-09T00:05:36.473Z,-958.70
2018-12-09T00:06:36.440Z,-959.37
2018-12-09T00:07:36.477Z,-963.02
2018-12-09T00:08:36.522Z,-965.35
2018-12-09T00:09:36.597Z,-957.86
2018-12-09T00:10:36.654Z,-958.78
2018-12-09T00:11:36.741Z,-956.68
2018-12-09T00:12:36.800Z,-960.00
2018-12-09T00:13:37.116Z,-964.28
2018-12-09T00:14:36.720Z,-961.12
2018-12-09T00:15:36.788Z,-965.25
2018-12-09T00:16:36.875Z,-957.43
2018-12-09T00:17:36.883Z,-969.48
2018-12-09T00:18:36.953Z,-967.11
2018-12-09T00:19:36.996Z,-962.88
2018-12-09T00:20:37.062Z,-956.93
2018-12-09T00:21:37.217Z,-965.83
2018-12-09T00:22:37.270Z,-961.97
2018-12-09T00:23:37.315Z,-957.93
2018-12-09T00:24:37.388Z,-960.96
2018-12-09T00:25:37.432Z,-964.65
2018-12-09T00:26:37.506Z,-959.74
2018-12-09T00:27:37.537Z,-965.37
2018-12-09T00:28:37.594Z,-959.77
2018-12-09T00:29:37.947Z,-964.93
2018-12-09T00:30:37.719Z,-958.51
2018-12-09T00:31:37.805Z,-970.27
2018-12-09T00:32:37.831Z,-961.06
2018-12-09T00:33:37.902Z,-961.78
2018-12-09T00:34:37.956Z,-962.11
2018-12-09T00:35:38.017Z,-962.80
2018-12-09T00:36:38.118Z,-964.92
2018-12-09T00:37:38.150Z,-966.96
2018-12-09T00:38:38.286Z,-960.29
2018-12-09T00:39:38.252Z,-955.87
2018-12-09T00:40:38.312Z,-967.56
2018-12-09T00:41:38.401Z,-952.12
2018-12-09T00:42:43.376Z,-959.96
2018-12-09T00:43:39.479Z,-963.83
2018-12-09T00:44:38.573Z,-965.00
2018-12-09T00:45:38.601Z,-969.28
2018-12-09T00:46:38.821Z,-963.23
2018-12-09T00:47:38.740Z,-953.94
2018-12-09T00:48:38.794Z,-962.17
2018-12-09T00:49:38.888Z,-966.61
2018-12-09T00:50:38.913Z,-964.72
2018-12-09T00:51:38.994Z,-968.66
2018-12-09T00:52:39.040Z,-962.42
2018-12-09T00:53:39.085Z,-964.62
2018-12-09T00:54:39.211Z,-963.68
2018-12-09T00:55:39.189Z,-959.66
2018-12-09T00:56:39.294Z,-964.75
2018-12-09T00:57:39.329Z,-962.41
2018-12-09T00:58:39.371Z,-967.64
2018-12-09T00:59:39.451Z,-912.99
2018-12-09T01:00:39.522Z,-960.31
2018-12-09T01:01:39.593Z,-963.46
2018-12-09T01:02:39.705Z,-958.13
2018-12-09T01:03:39.671Z,-965.64
2018-12-09T01:04:39.749Z,-961.13
2018-12-09T01:05:39.803Z,-957.27
2018-12-09T01:06:39.879Z,-964.84
2018-12-09T01:07:39.948Z,-960.07
2018-12-09T01:08:39.977Z,-954.91
2018-12-09T01:09:40.040Z,-958.28
2018-12-09T01:10:40.108Z,-956.30
2018-12-09T01:11:40.202Z,-966.99
2018-12-09T01:12:40.234Z,-961.72
2018-12-09T01:13:40.276Z,-968.57
2018-12-09T01:14:40.335Z,-964.51
2018-12-09T01:15:40.412Z,-964.17
2018-12-09T01:16:40.464Z,-963.32
2018-12-09T01:17:40.510Z,-960.87
2018-12-09T01:18:40.573Z,-961.24
2018-12-09T01:19:40.741Z,-961.33
2018-12-09T01:20:40.698Z,-961.42
2018-12-09T01:21:40.763Z,-962.14
2018-12-09T01:22:40.819Z,-911.60
2018-12-09T01:23:40.899Z,-906.05
2018-12-09T01:24:40.920Z,-902.09
2018-12-09T01:25:40.982Z,-911.90
2018-12-09T01:26:41.061Z,-900.39
2018-12-09T01:27:41.184Z,-899.42
2018-12-09T01:28:41.171Z,-910.67
2018-12-09T01:29:41.212Z,-908.57
2018-12-09T01:30:41.277Z,-903.12
2018-12-09T01:31:41.368Z,-908.59
2018-12-09T01:32:41.399Z,-893.66
2018-12-09T01:33:41.457Z,-963.31
2018-12-09T01:34:41.521Z,-962.76
2018-12-09T01:35:41.584Z,-957.23
2018-12-09T01:36:41.612Z,-966.95
2018-12-09T01:37:41.664Z,-962.26
2018-12-09T01:38:41.751Z,-911.08
2018-12-09T01:39:41.775Z,-965.14
2018-12-09T01:40:41.824Z,-965.66
2018-12-09T01:41:41.897Z,-962.93
2018-12-09T01:42:42.192Z,-963.58
2018-12-09T01:43:42.093Z,-964.71
2018-12-09T01:44:42.100Z,-964.89
2018-12-09T01:45:42.136Z,-956.81
2018-12-09T01:46:42.229Z,-967.77
2018-12-09T01:47:42.278Z,-964.34
2018-12-09T01:48:42.345Z,-962.14
2018-12-09T01:49:42.405Z,-964.29
2018-12-09T01:50:42.443Z,-969.21
2018-12-09T01:51:42.543Z,-963.07
2018-12-09T01:52:42.663Z,-963.31
2018-12-09T01:53:42.625Z,-963.35
2018-12-09T01:54:42.683Z,-961.87
2018-12-09T01:55:42.745Z,-964.26
2018-12-09T01:56:42.816Z,-972.78
2018-12-09T01:57:42.896Z,-961.41
2018-12-09T01:58:42.927Z,-969.28
2018-12-09T01:59:42.964Z,-962.36
2018-12-09T02:00:43.150Z,-963.63
2018-12-09T02:01:43.111Z,-958.64
2018-12-09T02:02:43.187Z,-959.03
2018-12-09T02:03:43.252Z,-962.24
2018-12-09T02:04:43.290Z,-965.96
2018-12-09T02:05:43.366Z,-961.70
2018-12-09T02:06:43.415Z,-957.57
2018-12-09T02:07:43.477Z,-910.19
2018-12-09T02:08:43.590Z,-917.48
2018-12-09T02:09:43.575Z,-911.31
2018-12-09T02:10:43.613Z,-909.72
2018-12-09T02:11:43.692Z,-909.21
2018-12-09T02:12:43.764Z,-904.50
2018-12-09T02:13:43.809Z,-907.60
2018-12-09T02:14:43.849Z,-912.79
2018-12-09T02:15:43.906Z,-917.28
2018-12-09T02:16:44.045Z,-913.48
2018-12-09T02:17:44.023Z,-916.23
2018-12-09T02:18:44.093Z,-913.21
2018-12-09T02:19:44.140Z,-905.31
2018-12-09T02:20:44.216Z,-916.81
2018-12-09T02:21:44.292Z,-917.69
2018-12-09T02:22:44.344Z,-911.35
2018-12-09T02:23:44.425Z,-914.95
2018-12-09T02:24:44.468Z,-918.30
2018-12-09T02:25:44.564Z,-916.17
2018-12-09T02:26:44.575Z,-914.09
2018-12-09T02:27:44.622Z,-913.62
2018-12-09T02:28:44.708Z,-911.43
2018-12-09T02:29:44.749Z,-916.28
2018-12-09T02:30:44.802Z,-914.48
2018-12-09T02:31:44.894Z,-916.00
2018-12-09T02:32:44.926Z,-907.50
2018-12-09T02:33:45.094Z,-906.39
2018-12-09T02:34:45.018Z,-903.49
2018-12-09T02:35:45.080Z,-919.29
2018-12-09T02:36:45.140Z,-920.24
2018-12-09T02:37:45.240Z,-916.42
2018-12-09T02:38:45.269Z,-915.82
2018-12-09T02:39:45.327Z,-909.91
2018-12-09T02:40:45.372Z,-917.02
2018-12-09T02:41:45.518Z,-903.21
2018-12-09T02:42:45.477Z,-917.21
2018-12-09T02:43:45.557Z,-910.46
2018-12-09T02:44:45.580Z,-913.59
2018-12-09T02:45:45.637Z,-911.84
2018-12-09T02:46:45.703Z,-910.82
2018-12-09T02:47:45.778Z,-913.78
2018-12-09T02:48:45.851Z,-906.79
2018-12-09T02:49:45.938Z,-915.77
2018-12-09T02:50:45.923Z,-905.59
2018-12-09T02:51:45.995Z,-912.40
2018-12-09T02:52:46.044Z,-914.66
2018-12-09T02:53:46.130Z,-913.28
2018-12-09T02:54:46.171Z,-905.27
2018-12-09T02:55:46.215Z,-915.50
2018-12-09T02:56:46.516Z,-907.89
2018-12-09T02:57:46.389Z,-915.19
2018-12-09T02:58:46.447Z,-910.24
2018-12-09T02:59:46.445Z,-914.71
2018-12-09T03:00:46.502Z,-905.85
2018-12-09T03:01:46.572Z,-917.89
2018-12-09T03:02:46.634Z,-909.57
2018-12-09T03:03:46.713Z,-913.47
2018-12-09T03:04:46.746Z,-903.07
2018-12-09T03:05:46.835Z,-912.52
2018-12-09T03:06:47.016Z,-911.78
2018-12-09T03:07:46.907Z,-909.02
2018-12-09T03:08:46.997Z,-919.27
2018-12-09T03:09:47.025Z,-904.68
2018-12-09T03:10:47.083Z,-916.83
2018-12-09T03:11:47.152Z,-908.92
2018-12-09T03:12:47.191Z,-912.89
2018-12-09T03:13:47.293Z,-905.41
2018-12-09T03:14:47.432Z,-908.56
2018-12-09T03:15:47.350Z,-917.04
2018-12-09T03:16:47.428Z,-916.23
2018-12-09T03:17:47.479Z,-908.24
2018-12-09T03:18:47.549Z,-911.33
2018-12-09T03:19:47.578Z,-903.38
2018-12-09T03:20:47.632Z,-898.57
2018-12-09T03:21:47.730Z,-916.38
2018-12-09T03:22:47.796Z,-915.34
2018-12-09T03:23:47.827Z,-908.97
2018-12-09T03:24:47.867Z,-918.59
2018-12-09T03:25:47.925Z,-919.17
2018-12-09T03:26:48.001Z,-912.26
2018-12-09T03:27:48.040Z,-911.65
2018-12-09T03:28:48.145Z,-916.12
2018-12-09T03:29:48.142Z,-913.83
2018-12-09T03:30:48.291Z,-917.81
2018-12-09T03:31:48.263Z,-911.87
2018-12-09T03:32:48.341Z,-914.46
2018-12-09T03:33:48.411Z,-910.51
2018-12-09T03:34:48.485Z,-911.59
2018-12-09T03:35:48.507Z,-915.33
2018-12-09T03:36:48.580Z,-911.40
2018-12-09T03:37:48.613Z,-914.86
2018-12-09T03:38:48.721Z,-905.68
2018-12-09T03:39:48.803Z,-908.35
2018-12-09T03:40:48.802Z,-920.59
2018-12-09T03:41:48.855Z,-913.73
2018-12-09T03:42:48.900Z,-905.80
2018-12-09T03:43:49.002Z,-904.31
2018-12-09T03:44:49.011Z,-918.59
2018-12-09T03:45:49.071Z,-915.29
2018-12-09T03:46:49.140Z,-912.10
2018-12-09T03:47:49.292Z,-912.23
2018-12-09T03:48:49.295Z,-910.08
2018-12-09T03:49:49.312Z,-906.09
2018-12-09T03:50:49.374Z,-920.77
2018-12-09T03:51:49.478Z,-909.96
2018-12-09T03:52:49.498Z,-908.60
2018-12-09T03:53:49.583Z,-908.67
2018-12-09T03:54:49.611Z,-914.38
2018-12-09T03:55:49.725Z,-916.83
2018-12-09T03:56:49.741Z,-905.57
2018-12-09T03:57:49.789Z,-910.10
2018-12-09T03:58:49.869Z,-914.06
2018-12-09T03:59:49.926Z,-905.40
2018-12-09T04:00:49.974Z,-909.76
2018-12-09T04:01:50.053Z,-912.55
2018-12-09T04:02:50.107Z,-915.91
2018-12-09T04:03:50.224Z,-911.30
2018-12-09T04:04:50.190Z,-906.95
2018-12-09T04:05:50.249Z,-908.11
2018-12-09T04:06:50.338Z,-904.63
2018-12-09T04:07:50.373Z,-909.53
2018-12-09T04:08:50.690Z,-907.14
2018-12-09T04:09:50.511Z,-911.81
2018-12-09T04:10:50.557Z,-906.77
2018-12-09T04:11:50.658Z,-906.61
2018-12-09T04:12:50.736Z,-903.48
2018-12-09T04:13:51.091Z,-903.00
2018-12-09T04:14:50.797Z,-908.01
2018-12-09T04:15:50.859Z,-914.32
2018-12-09T04:16:50.934Z,-908.59
2018-12-09T04:17:51.008Z,-907.21
2018-12-09T04:18:51.074Z,-905.33
2018-12-09T04:19:51.120Z,-914.71
2018-12-09T04:20:51.288Z,-911.40
2018-12-09T04:21:51.237Z,-907.87
2018-12-09T04:22:51.287Z,-911.73
2018-12-09T04:23:51.361Z,-913.48
2018-12-09T04:24:51.410Z,-913.85
2018-12-09T04:25:51.489Z,-907.47
2018-12-09T04:26:51.513Z,-908.10
2018-12-09T04:27:51.572Z,-908.02
2018-12-09T04:28:51.760Z,-917.94
2018-12-09T04:29:51.709Z,-922.41
2018-12-09T04:30:51.741Z,-910.38
2018-12-09T04:31:51.806Z,-909.26
2018-12-09T04:32:51.854Z,-912.00
2018-12-09T04:33:51.949Z,-914.16
2018-12-09T04:34:51.998Z,-909.37
2018-12-09T04:35:52.042Z,-904.81
2018-12-09T04:36:52.156Z,-908.51
2018-12-09T04:37:52.142Z,-917.97
2018-12-09T04:38:52.220Z,-905.40
2018-12-09T04:39:52.276Z,-918.23
2018-12-09T04:40:52.348Z,-914.86
2018-12-09T04:41:52.371Z,-904.34
2018-12-09T04:42:52.427Z,-920.39
2018-12-09T04:43:52.519Z,-909.26
2018-12-09T04:44:52.578Z,-907.55
2018-12-09T04:45:52.620Z,-908.63
2018-12-09T04:46:52.677Z,-921.96
2018-12-09T04:47:52.748Z,-915.53
2018-12-09T04:48:52.808Z,-912.01
2018-12-09T04:49:52.849Z,-918.05
2018-12-09T04:50:52.917Z,-915.73
2018-12-09T04:51:52.976Z,-915.57
2018-12-09T04:52:53.070Z,-913.70
2018-12-09T04:53:53.243Z,-909.96
2018-12-09T04:54:53.152Z,-911.83
2018-12-09T04:55:53.243Z,-911.17
2018-12-09T04:56:53.272Z,-915.49
2018-12-09T04:57:53.326Z,-911.98
2018-12-09T04:58:53.398Z,-913.66
2018-12-09T04:59:53.457Z,-913.27
2018-12-09T05:00:53.528Z,-913.88
2018-12-09T05:01:53.685Z,-909.30
2018-12-09T05:02:53.623Z,-910.73
2018-12-09T05:03:53.700Z,-912.93
2018-12-09T05:04:53.756Z,-918.95
2018-12-09T05:05:53.820Z,-914.15
2018-12-09T05:06:53.912Z,-916.31
2018-12-09T05:07:53.937Z,-913.30
2018-12-09T05:08:53.990Z,-911.42
2018-12-09T05:09:54.089Z,-914.12
2018-12-09T05:10:54.084Z,-912.21
2018-12-09T05:11:54.151Z,-912.60
2018-12-09T05:12:54.203Z,-908.34
2018-12-09T05:13:54.282Z,-914.49
2018-12-09T05:14:54.359Z,-909.99
2018-12-09T05:15:54.393Z,-914.62
2018-12-09T05:16:54.437Z,-918.92
2018-12-09T05:17:54.541Z,-917.94
2018-12-09T05:18:54.572Z,-919.06
2018-12-09T05:19:54.606Z,-912.70
2018-12-09T05:20:54.667Z,-918.67
2018-12-09T05:21:54.702Z,-912.87
2018-12-09T05:22:54.775Z,-920.35
2018-12-09T05:23:54.852Z,-908.57
2018-12-09T05:24:54.900Z,-913.42
2018-12-09T05:25:55.046Z,-917.48
2018-12-09T05:26:55.062Z,-926.99
2018-12-09T05:27:55.075Z,-919.21
2018-12-09T05:28:55.142Z,-908.68
2018-12-09T05:29:55.211Z,-924.51
2018-12-09T05:30:55.257Z,-913.57
2018-12-09T05:31:55.298Z,-916.62
2018-12-09T05:32:55.359Z,-907.13
2018-12-09T05:33:55.463Z,-913.37
2018-12-09T05:34:55.609Z,-917.78
2018-12-09T05:35:55.564Z,-911.62
2018-12-09T05:36:55.605Z,-919.70
2018-12-09T05:37:55.677Z,-924.98
2018-12-09T05:38:55.726Z,-920.65
2018-12-09T05:39:55.873Z,-917.48
2018-12-09T05:40:55.844Z,-916.59
2018-12-09T05:41:55.893Z,-917.08
2018-12-09T05:42:56.047Z,-919.20
2018-12-09T05:43:56.008Z,-910.66
2018-12-09T05:44:56.062Z,-917.39
2018-12-09T05:45:56.143Z,-917.23
2018-12-09T05:46:56.185Z,-919.78
2018-12-09T05:47:56.241Z,-906.76
2018-12-09T05:48:56.342Z,-905.08
2018-12-09T05:49:56.369Z,-913.23
2018-12-09T05:50:56.504Z,-901.00
2018-12-09T05:51:56.539Z,-920.82
2018-12-09T05:52:56.542Z,-922.57
2018-12-09T05:53:56.597Z,-915.59
2018-12-09T05:54:56.636Z,-911.64
2018-12-09T05:55:56.737Z,-924.23
2018-12-09T05:56:56.746Z,-923.08
2018-12-09T05:57:56.803Z,-915.96
2018-12-09T05:58:56.935Z,-912.01
2018-12-09T05:59:56.928Z,-913.26
2018-12-09T06:00:57.009Z,-915.32
2018-12-09T06:01:57.043Z,-914.60
2018-12-09T06:02:57.099Z,-915.77
2018-12-09T06:03:57.191Z,-909.79
2018-12-09T06:04:57.213Z,-911.54
2018-12-09T06:05:57.300Z,-912.67
2018-12-09T06:06:57.340Z,-909.86
2018-12-09T06:07:57.501Z,-915.22
2018-12-09T06:08:57.456Z,-920.97
2018-12-09T06:09:57.498Z,-907.31
2018-12-09T06:10:57.583Z,-913.73
2018-12-09T06:11:57.631Z,-910.93
2018-12-09T06:12:57.684Z,-919.20
2018-12-09T06:13:57.765Z,-909.24
2018-12-09T06:14:57.818Z,-913.41
2018-12-09T06:15:58.035Z,-912.59
2018-12-09T06:16:57.923Z,-917.42
2018-12-09T06:17:57.974Z,-911.15
2018-12-09T06:18:58.061Z,-911.41
2018-12-09T06:19:58.119Z,-915.67
2018-12-09T06:20:58.201Z,-921.07
2018-12-09T06:21:58.235Z,-918.25
2018-12-09T06:22:58.311Z,-908.08
2018-12-09T06:23:58.417Z,-914.58
2018-12-09T06:24:58.395Z,-917.68
2018-12-09T06:25:58.479Z,-912.46
2018-12-09T06:26:58.534Z,-908.79
2018-12-09T06:27:58.571Z,-908.59
2018-12-09T06:28:58.642Z,-904.02
2018-12-09T06:29:58.702Z,-896.56
2018-12-09T06:30:58.773Z,-904.79
2018-12-09T06:31:58.898Z,-911.44
2018-12-09T06:32:58.830Z,-897.26
2018-12-09T06:33:59.161Z,-901.78
2018-12-09T06:34:58.951Z,-911.69
2018-12-09T06:35:59.377Z,-900.13
2018-12-09T06:36:59.074Z,-901.35
2018-12-09T06:37:59.150Z,-890.78
2018-12-09T06:38:59.229Z,-906.87
2018-12-09T06:39:59.282Z,-899.31
2018-12-09T06:40:59.417Z,-911.48
2018-12-09T06:42:00.632Z,-906.69
2018-12-09T06:42:59.432Z,-889.65
2018-12-09T06:43:59.506Z,-904.00
2018-12-09T06:44:59.551Z,-894.75
2018-12-09T06:45:59.632Z,-902.03
2018-12-09T06:46:59.660Z,-916.29
2018-12-09T06:47:59.737Z,-904.54
2018-12-09T06:48:59.883Z,-898.26
2018-12-09T06:49:59.863Z,-901.45
2018-12-09T06:50:59.919Z,-901.97
2018-12-09T06:51:59.948Z,-906.13
2018-12-09T06:53:00.003Z,-895.54
2018-12-09T06:54:00.104Z,-892.89
2018-12-09T06:55:00.156Z,-901.45
2018-12-09T06:56:00.234Z,-892.90
2018-12-09T06:57:00.411Z,-909.75
2018-12-09T06:58:00.299Z,-902.36
2018-12-09T06:59:00.387Z,-903.29
2018-12-09T07:00:00.424Z,-895.27
2018-12-09T07:01:00.530Z,-896.95
2018-12-09T07:02:00.542Z,-901.82
2018-12-09T07:03:00.588Z,-902.39
2018-12-09T07:04:00.673Z,-895.81
2018-12-09T07:05:00.740Z,-899.75
2018-12-09T07:06:00.782Z,-899.25
2018-12-09T07:07:00.820Z,-897.99
2018-12-09T07:08:00.868Z,-903.26
2018-12-09T07:09:00.949Z,-892.28
2018-12-09T07:10:01.000Z,-910.48
2018-12-09T07:11:01.082Z,-894.21
2018-12-09T07:12:01.156Z,-899.06
2018-12-09T07:13:01.267Z,-900.19
2018-12-09T07:14:01.297Z,-894.49
2018-12-09T07:15:01.332Z,-890.93
2018-12-09T07:16:01.427Z,-897.38
2018-12-09T07:17:01.461Z,-890.36
2018-12-09T07:18:01.509Z,-895.59
2018-12-09T07:19:01.579Z,-899.54
2018-12-09T07:20:01.636Z,-901.36
2018-12-09T07:21:01.739Z,-897.32
2018-12-09T07:22:01.878Z,-901.90
2018-12-09T07:23:01.813Z,-895.54
2018-12-09T07:24:01.904Z,-899.19
2018-12-09T07:25:01.948Z,-896.38
2018-12-09T07:26:02.019Z,-895.92
2018-12-09T07:27:02.070Z,-896.95
2018-12-09T07:28:02.108Z,-895.11
2018-12-09T07:29:02.166Z,-894.48
2018-12-09T07:30:02.822Z,-898.30
2018-12-09T07:31:02.305Z,-901.82
2018-12-09T07:32:02.376Z,-894.41
2018-12-09T07:33:02.401Z,-903.35
2018-12-09T07:34:02.461Z,-905.71
2018-12-09T07:35:02.537Z,-899.56
2018-12-09T07:36:02.591Z,-902.68
2018-12-09T07:37:02.638Z,-897.59
2018-12-09T07:38:02.745Z,-900.78
2018-12-09T07:39:02.748Z,-898.91
2018-12-09T07:40:02.787Z,-899.59
2018-12-09T07:41:02.874Z,-901.54
2018-12-09T07:42:02.913Z,-899.79
2018-12-09T07:43:02.996Z,-897.22
2018-12-09T07:44:03.042Z,-897.51
2018-12-09T07:45:03.100Z,-901.44
2018-12-09T07:46:03.244Z,-890.52
2018-12-09T07:47:03.199Z,-896.87
2018-12-09T07:48:03.269Z,-905.43
2018-12-09T07:49:03.317Z,-911.42
2018-12-09T07:50:03.397Z,-899.53
2018-12-09T07:51:03.472Z,-903.57
2018-12-09T07:52:03.522Z,-901.10
2018-12-09T07:53:03.608Z,-913.09
2018-12-09T07:54:03.643Z,-903.53
2018-12-09T07:55:03.778Z,-905.90
2018-12-09T07:56:03.753Z,-912.00
2018-12-09T07:57:03.808Z,-905.35
2018-12-09T07:58:03.887Z,-907.92
2018-12-09T07:59:03.927Z,-907.47
2018-12-09T08:00:03.985Z,-903.49
2018-12-09T08:01:04.079Z,-910.84
2018-12-09T08:02:04.116Z,-903.21
2018-12-09T08:03:06.067Z,-912.23
2018-12-09T08:04:04.214Z,-907.03
2018-12-09T08:05:04.261Z,-905.68
2018-12-09T08:06:04.341Z,-910.06
2018-12-09T08:07:04.399Z,-907.86
2018-12-09T08:08:04.466Z,-905.87
2018-12-09T08:09:04.526Z,-904.70
2018-12-09T08:10:04.558Z,-907.04
2018-12-09T08:11:04.693Z,-909.50
2018-12-09T08:12:04.673Z,-908.62
2018-12-09T08:13:04.754Z,-904.08
2018-12-09T08:14:04.778Z,-899.51
2018-12-09T08:15:04.836Z,-900.18
2018-12-09T08:16:04.912Z,-905.61
2018-12-09T08:17:04.962Z,-895.51
2018-12-09T08:18:05.024Z,-905.73
2018-12-09T08:19:05.142Z,-897.70
2018-12-09T08:20:05.127Z,-903.52
2018-12-09T08:21:05.187Z,-894.13
2018-12-09T08:22:05.233Z,-896.10
2018-12-09T08:23:05.297Z,-899.97
2018-12-09T08:24:05.355Z,-895.01
2018-12-09T08:25:05.415Z,-902.25
2018-12-09T08:26:05.489Z,-900.13
2018-12-09T08:27:05.575Z,-902.33
2018-12-09T08:28:05.654Z,-905.91
2018-12-09T08:29:05.671Z,-900.75
2018-12-09T08:30:05.729Z,-904.94
2018-12-09T08:31:05.798Z,-902.76
2018-12-09T08:32:05.850Z,-906.16
2018-12-09T08:33:05.925Z,-906.17
2018-12-09T08:34:05.969Z,-910.48
2018-12-09T08:35:06.052Z,-902.41
2018-12-09T08:36:06.249Z,-903.02
2018-12-09T08:37:06.145Z,-899.94
2018-12-09T08:38:06.205Z,-901.73
2018-12-09T08:39:06.260Z,-900.44
2018-12-09T08:40:06.303Z,-906.08
2018-12-09T08:41:06.370Z,-905.23
2018-12-09T08:42:06.424Z,-905.85
2018-12-09T08:43:06.517Z,-900.34
2018-12-09T08:44:06.680Z,-909.06
2018-12-09T08:45:06.601Z,-908.41
2018-12-09T08:46:06.716Z,-917.94
2018-12-09T08:47:06.738Z,-918.73
2018-12-09T08:48:06.798Z,-918.18
2018-12-09T08:49:06.841Z,-914.39
2018-12-09T08:50:06.887Z,-910.97
2018-12-09T08:51:06.980Z,-915.61
2018-12-09T08:52:07.291Z,-915.56
2018-12-09T08:53:07.071Z,-915.98
2018-12-09T08:54:07.105Z,-909.92
2018-12-09T08:55:07.160Z,-914.78
2018-12-09T08:56:07.256Z,-905.90
2018-12-09T08:57:07.272Z,-912.09
2018-12-09T08:58:07.596Z,-914.27
2018-12-09T08:59:07.389Z,-915.83
2018-12-09T09:00:07.573Z,-914.85
2018-12-09T09:01:07.489Z,-911.47
2018-12-09T09:02:07.566Z,-916.77
2018-12-09T09:03:07.650Z,-904.63
2018-12-09T09:04:07.683Z,-909.89
2018-12-09T09:05:07.766Z,-913.15
2018-12-09T09:06:07.802Z,-913.86
2018-12-09T09:07:07.851Z,-911.11
2018-12-09T09:08:08.560Z,-909.42
2018-12-09T09:09:08.560Z,-903.75
2018-12-09T09:10:08.014Z,-913.54
2018-12-09T09:11:08.606Z,-917.51
2018-12-09T09:12:08.736Z,-917.47
2018-12-09T09:13:08.835Z,-907.73
2018-12-09T09:14:08.720Z,-910.91
2018-12-09T09:15:09.062Z,-914.62
2018-12-09T09:16:08.424Z,-914.45
2018-12-09T09:17:09.166Z,-905.18
2018-12-09T09:18:09.050Z,-907.90
2018-12-09T09:19:08.606Z,-907.06
2018-12-09T09:20:08.688Z,-911.78
2018-12-09T09:21:09.499Z,-905.75
2018-12-09T09:22:09.560Z,-900.92
2018-12-09T09:23:09.623Z,-907.52
2018-12-09T09:24:09.645Z,-894.63
2018-12-09T09:25:08.963Z,-902.20
2018-12-09T09:26:08.977Z,-903.05
2018-12-09T09:27:09.022Z,-905.91
2018-12-09T09:28:09.101Z,-907.14
2018-12-09T09:29:09.129Z,-908.97
2018-12-09T09:30:09.190Z,-913.71
2018-12-09T09:31:09.258Z,-914.26
2018-12-09T09:32:09.316Z,-913.94
2018-12-09T09:33:09.450Z,-916.49
2018-12-09T09:34:09.395Z,-913.55
2018-12-09T09:35:09.457Z,-913.56
2018-12-09T09:36:09.546Z,-915.69
2018-12-09T09:37:09.585Z,-907.15
2018-12-09T09:38:09.663Z,-916.87
2018-12-09T09:39:09.718Z,-911.22
2018-12-09T09:40:09.759Z,-916.11
2018-12-09T09:41:09.861Z,-907.08
2018-12-09T09:42:09.916Z,-915.05
2018-12-09T09:43:09.978Z,-915.82
2018-12-09T09:44:10.103Z,-915.01
2018-12-09T09:45:10.039Z,-910.63
2018-12-09T09:46:10.115Z,-911.84
2018-12-09T09:47:10.169Z,-911.77
2018-12-09T09:48:10.253Z,-912.78
2018-12-09T09:49:10.291Z,-904.60
2018-12-09T09:50:12.001Z,-911.13
2018-12-09T09:51:10.432Z,-908.28
2018-12-09T09:52:10.470Z,-902.70
2018-12-09T09:53:10.552Z,-917.34
2018-12-09T09:54:10.576Z,-910.59
2018-12-09T09:55:10.656Z,-916.79
2018-12-09T09:56:10.730Z,-917.80
2018-12-09T09:57:10.798Z,-907.84
2018-12-09T09:58:10.974Z,-903.98
2018-12-09T09:59:10.913Z,-919.45
2018-12-09T10:00:10.950Z,-915.59
2018-12-09T10:01:11.083Z,-920.16
2018-12-09T10:02:11.075Z,-917.62
2018-12-09T10:03:11.194Z,-923.04
2018-12-09T10:04:11.208Z,-916.81
2018-12-09T10:05:11.266Z,-913.94
2018-12-09T10:06:11.394Z,-909.75
2018-12-09T10:07:11.380Z,-917.66
2018-12-09T10:08:11.459Z,-917.94
2018-12-09T10:09:11.496Z,-917.71
2018-12-09T10:10:11.572Z,-906.48
2018-12-09T10:11:11.852Z,-912.68
2018-12-09T10:12:11.909Z,-911.53
2018-12-09T10:13:12.003Z,-926.92
2018-12-09T10:14:12.078Z,-915.10
2018-12-09T10:15:12.077Z,-918.94
2018-12-09T10:16:12.148Z,-914.57
2018-12-09T10:17:12.221Z,-917.57
2018-12-09T10:18:12.294Z,-916.75
2018-12-09T10:19:12.315Z,-909.31
2018-12-09T10:20:12.372Z,-914.46
2018-12-09T10:21:12.438Z,-911.74
2018-12-09T10:22:12.512Z,-913.03
2018-12-09T10:23:12.642Z,-909.81
2018-12-09T10:24:12.602Z,-910.14
2018-12-09T10:25:12.679Z,-903.51
2018-12-09T10:26:12.711Z,-925.32
2018-12-09T10:27:12.766Z,-913.92
2018-12-09T10:28:12.868Z,-919.07
2018-12-09T10:29:12.881Z,-916.75
2018-12-09T10:30:12.939Z,-912.68
2018-12-09T10:31:13.124Z,-899.44
2018-12-09T10:32:13.051Z,-901.73
2018-12-09T10:33:13.165Z,-911.27
2018-12-09T10:34:13.164Z,-908.81
2018-12-09T10:35:13.249Z,-910.35
2018-12-09T10:36:13.288Z,-913.19
2018-12-09T10:37:13.344Z,-905.75
2018-12-09T10:38:13.428Z,-899.28
2018-12-09T10:39:13.517Z,-911.21
2018-12-09T10:40:13.509Z,-909.61
2018-12-09T10:41:13.554Z,-915.30
2018-12-09T10:42:13.614Z,-903.88
2018-12-09T10:43:13.698Z,-919.14
2018-12-09T10:44:13.747Z,-913.32
2018-12-09T10:45:13.802Z,-906.76
2018-12-09T10:46:13.906Z,-907.25
2018-12-09T10:47:13.944Z,-916.06
2018-12-09T10:48:13.978Z,-912.90
2018-12-09T10:49:14.014Z,-920.05
2018-12-09T10:50:14.089Z,-922.96
2018-12-09T10:51:14.142Z,-910.80
2018-12-09T10:52:14.183Z,-908.58
2018-12-09T10:53:14.274Z,-908.10
2018-12-09T10:54:14.300Z,-908.87
2018-12-09T10:55:14.438Z,-914.14
2018-12-09T10:56:14.499Z,-914.09
2018-12-09T10:57:14.487Z,-912.63
2018-12-09T10:58:14.569Z,-918.37
2018-12-09T10:59:14.624Z,-913.86
2018-12-09T11:00:14.673Z,-915.87
2018-12-09T11:01:14.718Z,-915.84
2018-12-09T11:02:14.794Z,-913.25
2018-12-09T11:03:14.867Z,-920.89
2018-12-09T11:04:14.997Z,-913.28
2018-12-09T11:05:14.967Z,-910.49
2018-12-09T11:06:14.996Z,-907.17
2018-12-09T11:07:15.063Z,-912.56
2018-12-09T11:08:16.601Z,-907.28
2018-12-09T11:09:15.175Z,-907.96
2018-12-09T11:10:15.287Z,-916.83
2018-12-09T11:11:15.307Z,-911.60
2018-12-09T11:12:15.433Z,-908.50
2018-12-09T11:13:15.428Z,-916.86
2018-12-09T11:14:15.454Z,-915.11
2018-12-09T11:15:15.550Z,-912.73
2018-12-09T11:16:15.592Z,-909.36
2018-12-09T11:17:15.653Z,-910.49
2018-12-09T11:18:15.773Z,-901.25
2018-12-09T11:19:15.757Z,-908.21
2018-12-09T11:20:15.885Z,-917.29
2018-12-09T11:21:15.860Z,-906.87
2018-12-09T11:22:15.943Z,-905.92
2018-12-09T11:23:16.007Z,-914.67
2018-12-09T11:24:16.267Z,-905.63
2018-12-09T11:25:16.132Z,-909.30
2018-12-09T11:26:16.138Z,-908.44
2018-12-09T11:27:16.204Z,-923.81
2018-12-09T11:28:16.312Z,-922.06
2018-12-09T11:29:16.364Z,-909.51
2018-12-09T11:30:16.407Z,-908.21
2018-12-09T11:31:16.445Z,-915.98
2018-12-09T11:32:16.500Z,-919.44
2018-12-09T11:33:16.589Z,-912.73
2018-12-09T11:34:16.644Z,-906.99
2018-12-09T11:35:16.701Z,-910.52
2018-12-09T11:36:16.779Z,-904.58
2018-12-09T11:37:16.863Z,-921.47
2018-12-09T11:38:16.877Z,-910.22
2018-12-09T11:39:16.922Z,-915.88
2018-12-09T11:40:16.986Z,-911.97
2018-12-09T11:41:17.046Z,-919.13
2018-12-09T11:42:17.105Z,-913.99
2018-12-09T11:43:17.179Z,-911.70
2018-12-09T11:44:17.246Z,-912.72
2018-12-09T11:45:17.402Z,-911.41
2018-12-09T11:46:17.332Z,-917.21
2018-12-09T11:47:17.397Z,-914.40
2018-12-09T11:48:17.483Z,-912.59
2018-12-09T11:49:17.537Z,-920.24
2018-12-09T11:50:17.597Z,-919.20
2018-12-09T11:51:17.643Z,-911.01
2018-12-09T11:52:17.818Z,-919.60
2018-12-09T11:53:17.829Z,-914.90
2018-12-09T11:54:17.801Z,-909.17
2018-12-09T11:55:17.877Z,-911.69
2018-12-09T11:56:17.933Z,-911.00
2018-12-09T11:57:17.993Z,-912.15
2018-12-09T11:58:18.068Z,-904.28
2018-12-09T11:59:18.136Z,-907.40
2018-12-09T12:00:18.175Z,-907.59
2018-12-09T12:01:22.611Z,-911.96
2018-12-09T12:02:20.186Z,-907.93
2018-12-09T12:03:18.469Z,-910.47
2018-12-09T12:04:18.409Z,-908.23
2018-12-09T12:05:18.465Z,-897.65
2018-12-09T12:06:18.525Z,-899.39